Terminal Aerodrome Forecast
Issued by NWS North Platte, NE

Home | Current Version | Previous Version | Graphics & Text | Print | Product List | Glossary Off
Versions: 1 2 3 4 5 6 7 8 9 10 11 12 13

796
FTUS43 KLBF 171723
TAFVTN
TAF
KVTN 171723Z 1718/1818 01008G15KT P6SM VCSH BKN050 OVC100
     FM172000 03010KT P6SM BKN060 OVC100
     FM172300 35012G18KT P6SM -RA SCT010 BKN030 OVC050
     FM180300 01011G19KT 5SM -RASN OVC008
     FM180500 36014G26KT 3SM -SN OVC010
     FM180800 33016G24KT P6SM BKN008 OVC015
     FM181000 31019G38KT P6SM SCT140=

USA.gov is the U.S. government's official web portal to all federal, state and local government web resources and services.